logo
App data

Yrminsul

YRMINSUL is a strategy game in a persistent universe where each combat is held in the form of a Tower Defence. Crush the forces of good!
Store | Hub | SteamDB | Site
Developer: Black Flag Studios Publisher: Plug In Digital
Genre: Indie, Strategy
Languages: English, French
Tags: Strategy (24), Indie (24), Tower Defense (14), Narration (11)
Category: Single-player, Steam Achievements, Steam Trading Cards
Release date: Mar 2, 2016
Price: $9.99
Owners: 0 .. 20,000
Followers: 190
Playtime total: 11:16 (average) 19:54 (median)

Steam Spy is still in beta, so expect major bugs.

Owners data:

Access restricted.

This feature is only available to users with special access rights. Sorry.

If you want to proceed, you need to register or log in first and then back Steam Spy on Patreon. Look for Indie or Pro pledge.

Don't forget to use the same email as on Steam Spy!

If you've recently backed Steam Spy on Patreon, please note, that it might take around 15 minutes for your access rights to sync. In most cases you'll need to re-login on Steam Spy too.

Audience in 2 weeks:

Access restricted.

This feature is only available to users with special access rights. Sorry.

If you want to proceed, you need to register or log in first and then back Steam Spy on Patreon. Look for Indie or Pro pledge.

Don't forget to use the same email as on Steam Spy!

If you've recently backed Steam Spy on Patreon, please note, that it might take around 15 minutes for your access rights to sync. In most cases you'll need to re-login on Steam Spy too.

Peak daily concurrent players:

CCU data courtesy of SteamDB. Used with permission.

Hourly concurrent players:

Daily Twitch stats:

Hourly Twitch stats:

Followers over time

Access restricted.

This feature is only available to users with special access rights. Sorry.

If you want to proceed, you need to register or log in first and then back Steam Spy on Patreon. Look for Indie or Pro pledge.

Don't forget to use the same email as on Steam Spy!

If you've recently backed Steam Spy on Patreon, please note, that it might take around 15 minutes for your access rights to sync. In most cases you'll need to re-login on Steam Spy too.

Views for top 50 videos on YouTube for this game:

Games similar to this one:

# Game Release date
Price
Score rank
(Userscore / Metascore)
Owners
Players
Playtime (Median)
1 BalanCity Sep 21, 2016 $7.99N/A (N/A)100,000 .. 200,0000%00:00 (00:00)
2 Sentinel 4: Dark Star Aug 13, 2015 $6.99N/A (N/A)0 .. 20,0000%00:00 (00:00)
3 Alpha Runner Sep 2, 2015 $0.99N/A (N/A)100,000 .. 200,0000%00:00 (00:00)
4 In Between Aug 21, 2015 $11.99N/A (N/A/68%)50,000 .. 100,0000%00:00 (00:00)
5 Robot vs Birds Zombies Jun 1, 2013 $0.99N/A (N/A)500,000 .. 1,000,0000%00:00 (00:00)
6 The Deletion Jul 30, 2015 $1.99N/A (N/A)20,000 .. 50,0000%00:00 (00:00)
7 Evolution Jun 6, 2016 FreeN/A (N/A)20,000 .. 50,0000%00:00 (00:00)
8 Ace Of Words May 13, 2016 $4.99N/A (N/A)100,000 .. 200,0000%00:00 (00:00)
9 Gigachess Dec 15, 2015 $3.99N/A (N/A)0 .. 20,0000%00:00 (00:00)
10 White Mirror Jan 26, 2016 $4.99N/A (N/A)50,000 .. 100,0000%00:00 (00:00)
11 Iron Sea Defenders Sep 9, 2016 $4.99N/A (N/A)20,000 .. 50,0000%00:00 (00:00)
12 Plight of the Zombie Feb 22, 2016 $2.99N/A (N/A)20,000 .. 50,0000%00:00 (00:00)
13 Pointless Feb 22, 2016 FreeN/A (N/A)0 .. 20,0000%00:00 (00:00)
14 Airstrike HD Mar 23, 2016 $1.99N/A (N/A)200,000 .. 500,0000%00:00 (00:00)
15 Project Starship Apr 5, 2016 $2.99N/A (N/A)50,000 .. 100,0000%00:00 (00:00)
16 Forgotten, Not Lost - A Kinetic Novel Apr 2, 2016 $1.99N/A (N/A)20,000 .. 50,0000%00:00 (00:00)
17 Guardians of Victoria Apr 29, 2016 $1.99N/A (N/A)200,000 .. 500,0000%00:00 (00:00)
18 BomberZone May 27, 2016 $0.99N/A (N/A)20,000 .. 50,0000%00:00 (00:00)
19 Autumn Sep 23, 2014 $2.99N/A (N/A)100,000 .. 200,0000%00:00 (00:00)
20 Impossible Quest Jun 3, 2016 $1.99N/A (N/A)20,000 .. 50,0000%00:00 (00:00)
21 Reset 1-1 Aug 30, 2016 $1.99N/A (N/A)200,000 .. 500,0000%00:00 (00:00)
22 Strategy & Tactics: Dark Ages Aug 4, 2017 $14.99N/A (N/A)50,000 .. 100,0000%00:00 (00:00)
23 Won't You Be My Laser? Sep 2, 2016 $0.99N/A (N/A)0 .. 20,0000%00:00 (00:00)
24 Crash Wheels Dec 20, 2018 $4.99N/A (N/A)50,000 .. 100,0000%00:00 (00:00)
25 Luke Sidewalker Nov 25, 2016 FreeN/A (N/A)50,000 .. 100,0000%00:00 (00:00)
26 Space Beret Oct 25, 2016 $0.99N/A (N/A)200,000 .. 500,0000%00:00 (00:00)
27 Neon Prism Nov 18, 2016 $10.99N/A (N/A)50,000 .. 100,0006.67%13:56 (04:38)
28 Estiman Nov 23, 2016 N/AN/A (N/A)0 .. 20,0000%00:00 (00:00)
29 Attempt[42] Dec 8, 2016 $2.99N/A (N/A)50,000 .. 100,0000%00:00 (00:00)
30 Lobotomy Corporation | Monster Management Simulation Apr 9, 2018 $24.99N/A (N/A)500,000 .. 1,000,00017.65%03:58 (03:38)
31 Magic Box Jan 19, 2017 $0.99N/A (N/A)20,000 .. 50,0000%00:00 (00:00)
32 Quantum Rush Champions Dec 4, 2014 $9.99N/A (N/A)20,000 .. 50,0000%00:00 (00:00)
33 Governor of Poker 2 - Premium Edition Oct 11, 2010 $7.99N/A (N/A)20,000 .. 50,0000%00:00 (00:00)
34 Ancients of Ooga May 20, 2011 $9.99N/A (N/A)20,000 .. 50,0000%00:00 (00:00)
35 Divide By Sheep Jul 2, 2015 $4.99N/A (N/A/83%)2,000,000 .. 5,000,0000.48%34:13 (11:24)
36 MXGP - The Official Motocross Videogame Mar 28, 2014 $9.99N/A (N/A)100,000 .. 200,0000%00:00 (00:00)
37 Particulars Nov 19, 2014 FreeN/A (N/A/74%)0 .. 20,0000%00:00 (00:00)
38 Paranormal State: Poison Spring Nov 26, 2013 $9.99N/A (N/A)50,000 .. 100,0000%00:00 (00:00)
39 Robot Rescue Revolution Jul 11, 2014 $4.99N/A (N/A)0 .. 20,0000%00:00 (00:00)
40 Ionball 2: Ionstorm Jun 6, 2014 $4.99N/A (N/A/70%)200,000 .. 500,0000%00:00 (00:00)
41 Autocraft Sep 20, 2017 $9.99N/A (N/A)20,000 .. 50,0000%00:00 (00:00)
42 Automation - The Car Company Tycoon Game Mar 12, 2015 $29.99N/A (N/A)200,000 .. 500,0000%00:00 (00:00)
43 CAPSULE Feb 14, 2012 $4.99N/A (N/A)20,000 .. 50,0000%00:00 (00:00)
44 Wildlife Park 2 May 12, 2006 $6.99N/A (N/A)100,000 .. 200,0000%00:00 (00:00)
45 Metrocide Dec 15, 2014 $12.99N/A (N/A/68%)50,000 .. 100,0000%00:00 (00:00)
46 GamersGoMakers Aug 8, 2014 $8.99N/A (N/A)20,000 .. 50,0000%00:00 (00:00)
47 Blob From Space Jul 4, 2020 $1.99N/A (N/A)50,000 .. 100,0000%00:00 (00:00)
48 Everyday Genius: SquareLogic Oct 9, 2009 $4.99N/A (N/A)0 .. 20,0000%00:00 (00:00)
49 Cosmonautica Jul 31, 2015 $9.99N/A (N/A)200,000 .. 500,0000%00:00 (00:00)
50 Alchemy Mysteries: Prague Legends Dec 22, 2014 $1.99N/A (N/A)100,000 .. 200,0000%00:00 (00:00)
51 Cheesecake Cool Conrad Oct 8, 2014 $4.99N/A (N/A)0 .. 20,0000%00:00 (00:00)
52 Crab Cakes Rescue Nov 14, 2014 $6.99N/A (N/A)20,000 .. 50,0000%00:00 (00:00)
53 Pixel Survivors May 5, 2016 $0.99N/A (N/A)50,000 .. 100,0000%00:00 (00:00)
54 Crash Drive 2 May 28, 2015 $4.99N/A (N/A)200,000 .. 500,0000%00:00 (00:00)
55 Pixel Puzzles 2: Birds Feb 20, 2015 $4.99N/A (N/A)200,000 .. 500,0000%00:00 (00:00)
56 Stay Alight Mar 2, 2015 $3.99N/A (N/A)50,000 .. 100,0000%00:00 (00:00)
57 The Way We All Go Mar 24, 2015 $5.99N/A (N/A)0 .. 20,0000%00:00 (00:00)
58 Unium Feb 3, 2015 $1.99N/A (N/A)0 .. 20,0000%00:00 (00:00)
59 Egg Returns Home May 5, 2015 $0.99N/A (N/A)50,000 .. 100,0000%00:00 (00:00)
60 Space Drifters 2D Mar 28, 2016 $0.99N/A (N/A)20,000 .. 50,0000%00:00 (00:00)
61 Koala Kids Jun 22, 2015 $1.99N/A (N/A)50,000 .. 100,0000%00:00 (00:00)
62 Star Chronicles: Delta Quadrant Jul 7, 2015 $0.99N/A (N/A)200,000 .. 500,0000%00:00 (00:00)

Tags over time:

Access restricted.

This feature is only available to users with special access rights. Sorry.

If you want to proceed, you need to register or log in first and then back Steam Spy on Patreon. Look for Indie or Pro pledge.

Don't forget to use the same email as on Steam Spy!

If you've recently backed Steam Spy on Patreon, please note, that it might take around 15 minutes for your access rights to sync. In most cases you'll need to re-login on Steam Spy too.

Owners of this game also own:

Access restricted.

This feature is only available to users with special access rights. Sorry.

If you want to proceed, you need to register or log in first and then back Steam Spy on Patreon. Look for Indie or Pro pledge.

Don't forget to use the same email as on Steam Spy!

If you've recently backed Steam Spy on Patreon, please note, that it might take around 15 minutes for your access rights to sync. In most cases you'll need to re-login on Steam Spy too.

Playtime distribution:

Access restricted.

This feature is only available to users with special access rights. Sorry.

If you want to proceed, you need to register or log in first and then back Steam Spy on Patreon. Look for Indie or Pro pledge.

Don't forget to use the same email as on Steam Spy!

If you've recently backed Steam Spy on Patreon, please note, that it might take around 15 minutes for your access rights to sync. In most cases you'll need to re-login on Steam Spy too.

Playtime (2 weeks):

Access restricted.

This feature is only available to users with special access rights. Sorry.

If you want to proceed, you need to register or log in first and then back Steam Spy on Patreon. Look for Indie or Pro pledge.

Don't forget to use the same email as on Steam Spy!

If you've recently backed Steam Spy on Patreon, please note, that it might take around 15 minutes for your access rights to sync. In most cases you'll need to re-login on Steam Spy too.

User reviews:

Login required.

Please register or log in to see this information.